Time;durP1;ratioP1;P1;durP2;ratioP2;P2;SDS_P1;SDS_P2;PMS_P1;PMS_P2;Temp;Humidity;BMP_temperature;BMP_pressure;BME280_temperature;BME280_humidity;BME280_pressure;Samples;Min_cycle;Max_cycle;Signal;HPM_P1;HPM_P2
2024/01/13 00:01:42;;;;;;;97.50;42.17;;;1.30;99.90;;;;;;5119530;28;20777;-72
2024/01/13 00:04:10;;;;;;;111.90;43.40;;;1.30;99.90;;;;;;5119019;28;20455;-71
2024/01/13 00:06:37;;;;;;;95.57;44.47;;;1.40;99.90;;;;;;5119082;28;20456;-72
2024/01/13 00:09:04;;;;;;;98.73;41.03;;;1.40;99.90;;;;;;5119263;28;20468;-72
2024/01/13 00:11:32;;;;;;;70.03;38.40;;;1.30;99.90;;;;;;5119232;28;20512;-73
2024/01/13 00:14:00;;;;;;;71.67;38.43;;;1.30;99.90;;;;;;5118049;28;20484;-72
2024/01/13 00:16:27;;;;;;;75.33;39.97;;;1.30;99.90;;;;;;5118728;28;20470;-72
2024/01/13 00:18:56;;;;;;;78.87;38.10;;;1.30;99.90;;;;;;5118895;28;20841;-72
2024/01/13 00:21:24;;;;;;;77.00;39.70;;;1.30;99.90;;;;;;5119310;28;20881;-73
2024/01/13 00:23:51;;;;;;;70.70;39.33;;;1.30;99.90;;;;;;5118967;28;20946;-73
2024/01/13 00:26:19;;;;;;;71.93;37.33;;;1.40;99.90;;;;;;5118640;28;20459;-72
2024/01/13 00:28:47;;;;;;;69.73;39.30;;;1.30;99.90;;;;;;5118731;28;20741;-72
2024/01/13 00:31:14;;;;;;;72.37;36.43;;;1.30;99.90;;;;;;5118668;28;20470;-72
2024/01/13 00:33:43;;;;;;;70.27;39.43;;;1.30;99.90;;;;;;5118901;28;20491;-72
2024/01/13 00:36:12;;;;;;;66.13;36.93;;;1.30;99.90;;;;;;5118651;28;20503;-73
2024/01/13 00:38:40;;;;;;;70.13;36.77;;;1.30;99.90;;;;;;5118340;28;20738;-74
2024/01/13 00:41:08;;;;;;;69.80;37.80;;;1.30;99.90;;;;;;5118365;28;20922;-73
2024/01/13 00:43:36;;;;;;;76.03;37.80;;;1.20;99.90;;;;;;5118069;28;20479;-72
2024/01/13 00:46:04;;;;;;;65.47;37.63;;;1.30;99.90;;;;;;5118155;28;20881;-73
2024/01/13 00:48:31;;;;;;;69.13;37.17;;;1.30;99.90;;;;;;5118370;28;20437;-73
2024/01/13 00:51:00;;;;;;;69.40;36.10;;;1.30;99.90;;;;;;5118464;28;20460;-73
2024/01/13 00:53:30;;;;;;;78.73;39.00;;;1.30;99.90;;;;;;5117772;28;20495;-72
2024/01/13 00:55:58;;;;;;;94.80;40.77;;;1.30;99.90;;;;;;5118231;28;20481;-72
2024/01/13 00:58:25;;;;;;;81.57;40.10;;;1.30;99.90;;;;;;5117643;28;20460;-73
2024/01/13 01:00:53;;;;;;;74.20;40.00;;;1.40;99.90;;;;;;5117914;28;20466;-72
2024/01/13 01:03:20;;;;;;;81.20;39.00;;;1.40;99.90;;;;;;5118265;28;20447;-73
2024/01/13 01:05:47;;;;;;;91.27;40.80;;;1.40;99.90;;;;;;5118028;28;20487;-72
2024/01/13 01:08:15;;;;;;;89.93;40.93;;;1.40;99.90;;;;;;5117568;28;20488;-72
2024/01/13 01:10:44;;;;;;;79.47;39.17;;;1.40;99.90;;;;;;5117677;28;20456;-72
2024/01/13 01:13:11;;;;;;;95.63;41.00;;;1.30;99.90;;;;;;5118220;28;20520;-73
2024/01/13 01:15:38;;;;;;;93.37;41.67;;;1.30;99.90;;;;;;5118111;28;20459;-74
2024/01/13 01:18:06;;;;;;;91.23;39.23;;;1.30;99.90;;;;;;5117657;28;20459;-73
2024/01/13 01:20:34;;;;;;;85.20;41.20;;;1.30;99.90;;;;;;5117836;28;20929;-73
2024/01/13 01:23:01;;;;;;;77.63;42.47;;;1.40;99.90;;;;;;5117338;28;20508;-73
2024/01/13 01:25:28;;;;;;;71.20;41.40;;;1.30;99.90;;;;;;5121013;28;20561;-73
2024/01/13 01:27:57;;;;;;;78.43;40.53;;;1.40;99.90;;;;;;5122358;28;20516;-74
2024/01/13 01:30:25;;;;;;;75.53;41.80;;;1.40;99.90;;;;;;5121891;28;20478;-74
2024/01/13 01:32:52;;;;;;;76.50;41.50;;;1.40;99.90;;;;;;5122001;28;20459;-73
2024/01/13 01:35:19;;;;;;;83.07;40.87;;;1.40;99.90;;;;;;5122115;28;20566;-73
2024/01/13 01:37:47;;;;;;;84.90;41.10;;;1.40;99.90;;;;;;5121903;28;20455;-73
2024/01/13 01:40:16;;;;;;;82.30;41.70;;;1.40;99.90;;;;;;5122234;28;20740;-74
2024/01/13 01:42:44;;;;;;;86.20;40.17;;;1.40;99.90;;;;;;5121873;28;20466;-72
2024/01/13 01:45:13;;;;;;;77.97;41.00;;;1.40;99.90;;;;;;5121918;28;20491;-74
2024/01/13 01:47:42;;;;;;;88.50;40.77;;;1.40;99.90;;;;;;5121965;28;20823;-74
2024/01/13 01:50:11;;;;;;;83.03;42.33;;;1.40;99.90;;;;;;5121587;28;20441;-72
2024/01/13 01:52:40;;;;;;;72.87;38.47;;;1.40;99.90;;;;;;5121572;28;20513;-73
2024/01/13 01:55:08;;;;;;;76.57;41.20;;;1.40;99.90;;;;;;5121671;28;20555;-74
2024/01/13 01:57:38;;;;;;;79.87;40.67;;;1.30;99.90;;;;;;5121507;28;20459;-72
2024/01/13 02:00:09;;;;;;;72.10;37.97;;;1.40;99.90;;;;;;5121195;28;20486;-72
2024/01/13 02:02:38;;;;;;;70.33;36.37;;;1.40;99.90;;;;;;5120817;28;20844;-73
2024/01/13 02:05:06;;;;;;;63.97;38.40;;;1.30;99.90;;;;;;5121573;28;20513;-74
2024/01/13 02:07:34;;;;;;;82.40;39.77;;;1.30;99.90;;;;;;5121094;28;21001;-73
2024/01/13 02:10:03;;;;;;;68.50;38.63;;;1.30;99.90;;;;;;5121324;28;20468;-71
2024/01/13 02:12:30;;;;;;;70.60;39.43;;;1.30;99.90;;;;;;5121169;28;20474;-73
2024/01/13 02:14:57;;;;;;;69.60;38.03;;;1.30;99.90;;;;;;5121006;28;20469;-74
2024/01/13 02:17:25;;;;;;;70.60;38.20;;;1.30;99.90;;;;;;5121209;28;20456;-73
2024/01/13 02:19:54;;;;;;;63.50;37.87;;;1.30;99.90;;;;;;5121295;28;20485;-72
2024/01/13 02:22:23;;;;;;;69.07;37.53;;;1.30;99.90;;;;;;5120955;28;20487;-73
2024/01/13 02:24:50;;;;;;;64.20;37.10;;;1.30;99.90;;;;;;5120556;27;20491;-73
2024/01/13 02:27:17;;;;;;;72.33;37.43;;;1.30;99.90;;;;;;5121044;28;20876;-71
2024/01/13 02:29:45;;;;;;;67.67;37.07;;;1.30;99.90;;;;;;5121278;28;20528;-71
2024/01/13 02:32:12;;;;;;;78.20;36.40;;;1.30;99.90;;;;;;5120572;28;20491;-71
2024/01/13 02:34:39;;;;;;;68.30;37.07;;;1.40;99.90;;;;;;5120755;28;20487;-72
2024/01/13 02:37:06;;;;;;;63.57;38.33;;;1.40;99.90;;;;;;5120161;28;20945;-73
2024/01/13 02:39:35;;;;;;;63.90;36.30;;;1.30;99.90;;;;;;5120988;28;20463;-72
2024/01/13 02:42:03;;;;;;;73.00;38.57;;;1.30;99.90;;;;;;5120412;28;20448;-73
2024/01/13 02:44:30;;;;;;;58.73;35.90;;;1.40;99.90;;;;;;5119989;28;20454;-71
2024/01/13 02:46:58;;;;;;;66.67;34.47;;;1.40;99.90;;;;;;5119414;28;20817;-73
2024/01/13 02:49:25;;;;;;;64.50;35.00;;;1.40;99.90;;;;;;5120796;28;20480;-74
2024/01/13 02:51:52;;;;;;;58.73;31.57;;;1.30;99.90;;;;;;5120572;28;20960;-71
2024/01/13 02:54:20;;;;;;;54.17;32.53;;;1.40;99.90;;;;;;5120428;28;20499;-71
2024/01/13 02:56:49;;;;;;;60.67;34.87;;;1.40;99.90;;;;;;5120004;28;20460;-71
2024/01/13 02:59:16;;;;;;;63.67;33.40;;;1.40;99.90;;;;;;5119940;28;20474;-72
2024/01/13 03:01:43;;;;;;;55.80;34.07;;;1.40;99.90;;;;;;5120276;28;20492;-72
2024/01/13 03:04:11;;;;;;;52.73;31.37;;;1.40;99.90;;;;;;5119221;28;20487;-72
2024/01/13 03:06:38;;;;;;;60.77;31.57;;;1.40;99.90;;;;;;5120035;28;20463;-71
2024/01/13 03:09:05;;;;;;;64.10;32.30;;;1.30;99.90;;;;;;5079108;28;20538;-73
2024/01/13 03:11:33;;;;;;;60.77;33.97;;;1.40;99.90;;;;;;5079517;28;20752;-73
2024/01/13 03:14:02;;;;;;;52.07;31.70;;;1.30;99.90;;;;;;5078832;28;20905;-72
2024/01/13 03:16:30;;;;;;;62.63;33.53;;;1.30;99.90;;;;;;5079057;28;20515;-71
2024/01/13 03:18:57;;;;;;;59.23;33.20;;;1.40;99.90;;;;;;5079082;28;20835;-71
2024/01/13 03:21:24;;;;;;;57.53;31.60;;;1.40;99.90;;;;;;5079026;28;20590;-72
2024/01/13 03:23:51;;;;;;;54.17;31.23;;;1.40;99.90;;;;;;5079060;28;20449;-72
2024/01/13 03:26:19;;;;;;;57.93;30.17;;;1.40;99.90;;;;;;5078734;28;20802;-73
2024/01/13 03:28:46;;;;;;;56.20;31.57;;;1.50;99.90;;;;;;5079078;28;20786;-71
2024/01/13 03:31:15;;;;;;;53.10;30.80;;;1.50;99.90;;;;;;5078396;28;20518;-73
2024/01/13 03:33:42;;;;;;;52.37;31.57;;;1.50;99.90;;;;;;5078776;28;20731;-71
2024/01/13 03:36:10;;;;;;;50.40;30.50;;;1.40;99.90;;;;;;5078066;28;20588;-71
2024/01/13 03:38:37;;;;;;;49.10;30.80;;;1.40;99.90;;;;;;5078598;28;20464;-74
2024/01/13 03:41:06;;;;;;;48.23;29.70;;;1.50;99.90;;;;;;5078499;28;20468;-73
2024/01/13 03:43:33;;;;;;;51.07;30.50;;;1.50;99.90;;;;;;5078525;28;20432;-72
2024/01/13 03:46:00;;;;;;;48.30;30.20;;;1.40;99.90;;;;;;5078310;28;20513;-71
2024/01/13 03:48:29;;;;;;;51.43;31.97;;;1.50;99.90;;;;;;5077238;28;20471;-72
2024/01/13 03:50:56;;;;;;;43.13;27.07;;;1.50;99.90;;;;;;5077991;28;20482;-71
2024/01/13 03:53:24;;;;;;;52.83;30.20;;;1.50;99.90;;;;;;5078398;28;20526;-71
2024/01/13 03:55:51;;;;;;;51.37;31.73;;;1.40;99.90;;;;;;5078371;28;20499;-72
2024/01/13 03:58:18;;;;;;;46.80;31.07;;;1.50;99.90;;;;;;5077810;28;20527;-73
2024/01/13 04:00:46;;;;;;;49.27;29.90;;;1.50;99.90;;;;;;5078162;28;20497;-72
2024/01/13 04:03:13;;;;;;;47.97;31.03;;;1.50;99.90;;;;;;5078114;28;20439;-72
2024/01/13 04:05:42;;;;;;;56.07;33.40;;;1.50;99.90;;;;;;5078249;28;20504;-72
2024/01/13 04:08:09;;;;;;;52.83;30.80;;;1.50;99.90;;;;;;5103136;28;20527;-73
2024/01/13 04:10:37;;;;;;;50.30;31.47;;;1.50;99.90;;;;;;5118822;28;20487;-72
2024/01/13 04:13:04;;;;;;;53.63;33.27;;;1.40;99.90;;;;;;5118747;28;20966;-73
2024/01/13 04:15:32;;;;;;;52.20;30.83;;;1.40;99.90;;;;;;5118554;28;20487;-72
2024/01/13 04:18:00;;;;;;;50.63;30.37;;;1.50;99.90;;;;;;5118310;28;20463;-72
2024/01/13 04:20:27;;;;;;;53.47;31.43;;;1.50;99.90;;;;;;5118218;28;20463;-71
2024/01/13 04:22:56;;;;;;;47.50;30.17;;;1.50;99.90;;;;;;5118672;28;20456;-72
2024/01/13 04:25:23;;;;;;;55.03;30.00;;;1.50;99.90;;;;;;5118366;28;20452;-73
2024/01/13 04:27:52;;;;;;;46.27;26.90;;;1.50;99.90;;;;;;5118764;28;20491;-72
2024/01/13 04:30:20;;;;;;;44.60;28.03;;;1.40;99.90;;;;;;5118218;28;20495;-71
2024/01/13 04:32:47;;;;;;;49.40;27.70;;;1.40;99.90;;;;;;5118148;28;20491;-72
2024/01/13 04:35:15;;;;;;;48.33;29.33;;;1.50;99.90;;;;;;5118159;28;20977;-71
2024/01/13 04:37:42;;;;;;;46.70;27.83;;;1.50;99.90;;;;;;5118167;28;20762;-72
2024/01/13 04:40:12;;;;;;;45.70;28.00;;;1.50;99.90;;;;;;5117768;28;20440;-72
2024/01/13 04:42:39;;;;;;;47.50;27.67;;;1.50;99.90;;;;;;5117932;28;20460;-72
2024/01/13 04:45:08;;;;;;;55.10;29.50;;;1.50;99.90;;;;;;5117877;28;20533;-72
2024/01/13 04:47:35;;;;;;;47.33;27.87;;;1.40;99.90;;;;;;5118372;28;20464;-72
2024/01/13 04:50:03;;;;;;;45.63;27.60;;;1.40;99.90;;;;;;5118006;28;20801;-72
2024/01/13 04:52:30;;;;;;;41.00;26.60;;;1.40;99.90;;;;;;5117895;28;20464;-72
2024/01/13 04:54:57;;;;;;;40.73;27.00;;;1.40;99.90;;;;;;5118059;28;20869;-72
2024/01/13 04:57:26;;;;;;;41.90;26.43;;;1.50;99.90;;;;;;5118225;28;20910;-72
2024/01/13 04:59:54;;;;;;;41.83;26.03;;;1.50;99.90;;;;;;5117878;28;20522;-72
2024/01/13 05:02:21;;;;;;;42.23;26.67;;;1.50;99.90;;;;;;5117774;28;20499;-72
2024/01/13 05:04:48;;;;;;;34.33;25.40;;;1.50;99.90;;;;;;5117599;28;20458;-72
2024/01/13 05:07:15;;;;;;;42.23;24.80;;;1.50;99.90;;;;;;5117352;28;20491;-72
2024/01/13 05:09:44;;;;;;;43.87;25.47;;;1.50;99.90;;;;;;5118288;28;20751;-72
2024/01/13 05:12:11;;;;;;;37.83;24.33;;;1.50;99.90;;;;;;5117370;28;20455;-72
2024/01/13 05:14:40;;;;;;;39.13;24.83;;;1.60;99.90;;;;;;5117437;28;20456;-72
2024/01/13 05:17:07;;;;;;;33.97;24.57;;;1.50;99.90;;;;;;5117872;28;20441;-73
2024/01/13 05:19:35;;;;;;;32.07;22.60;;;1.50;99.90;;;;;;5117852;28;20459;-73
2024/01/13 05:22:02;;;;;;;37.30;23.70;;;1.50;99.90;;;;;;5117154;28;20512;-72
2024/01/13 05:24:29;;;;;;;37.33;24.13;;;1.50;99.90;;;;;;5117352;28;20532;-72
2024/01/13 05:26:57;;;;;;;38.63;22.27;;;1.50;99.90;;;;;;5117483;28;20554;-72
2024/01/13 05:29:24;;;;;;;40.70;24.33;;;1.60;99.90;;;;;;5117749;28;20479;-74
2024/01/13 05:31:53;;;;;;;34.33;23.67;;;1.60;99.90;;;;;;5117983;28;20517;-72
2024/01/13 05:34:20;;;;;;;35.67;22.20;;;1.50;99.90;;;;;;5117114;28;20516;-72
2024/01/13 05:36:48;;;;;;;40.90;23.20;;;1.50;99.90;;;;;;5117766;28;20561;-72
2024/01/13 05:39:15;;;;;;;35.10;22.40;;;1.50;99.90;;;;;;5117219;28;20430;-72
2024/01/13 05:41:43;;;;;;;32.73;21.80;;;1.40;99.90;;;;;;5117995;28;20914;-71
2024/01/13 05:44:11;;;;;;;33.10;21.90;;;1.40;99.90;;;;;;5117394;28;20512;-72
2024/01/13 05:46:38;;;;;;;33.40;22.13;;;1.40;99.90;;;;;;5117285;28;20513;-73
2024/01/13 05:49:08;;;;;;;33.60;23.40;;;1.50;99.90;;;;;;5117524;28;20932;-72
2024/01/13 05:51:36;;;;;;;34.57;22.17;;;1.50;99.90;;;;;;5117648;28;20856;-72
2024/01/13 05:54:04;;;;;;;32.80;22.50;;;1.60;99.90;;;;;;5117187;28;20438;-73
2024/01/13 05:56:31;;;;;;;36.30;22.90;;;1.60;99.90;;;;;;5117537;28;20554;-72
2024/01/13 05:58:59;;;;;;;35.70;24.70;;;1.50;99.90;;;;;;5117482;28;20464;-73
2024/01/13 06:01:26;;;;;;;33.90;23.47;;;1.60;99.90;;;;;;5117616;28;20546;-72
2024/01/13 06:03:54;;;;;;;32.77;23.00;;;1.60;99.90;;;;;;5117348;28;20487;-71
2024/01/13 06:06:22;;;;;;;36.87;22.70;;;1.60;99.90;;;;;;5116838;28;20473;-72
2024/01/13 06:08:50;;;;;;;35.33;23.63;;;1.60;99.90;;;;;;5116634;28;20490;-72
2024/01/13 06:11:17;;;;;;;31.07;22.37;;;1.60;99.90;;;;;;5118828;28;20553;-71
2024/01/13 06:13:44;;;;;;;33.93;22.73;;;1.60;99.90;;;;;;5121201;28;20516;-73
2024/01/13 06:16:13;;;;;;;36.77;22.33;;;1.60;99.90;;;;;;5120936;28;20531;-72
2024/01/13 06:18:40;;;;;;;31.93;22.40;;;1.60;99.90;;;;;;5120972;28;20462;-73
2024/01/13 06:21:07;;;;;;;31.03;21.70;;;1.60;99.90;;;;;;5120786;28;20847;-73
2024/01/13 06:23:36;;;;;;;32.20;22.67;;;1.50;99.90;;;;;;5120854;28;20457;-72
2024/01/13 06:26:04;;;;;;;32.00;22.57;;;1.60;99.90;;;;;;5120171;28;20475;-73
2024/01/13 06:28:31;;;;;;;32.43;22.50;;;1.60;99.90;;;;;;5120238;28;20740;-72
2024/01/13 06:30:59;;;;;;;30.63;23.10;;;1.60;99.90;;;;;;5119382;28;20479;-73
2024/01/13 06:33:26;;;;;;;33.07;21.80;;;1.60;99.90;;;;;;5121231;28;20510;-73
2024/01/13 06:35:53;;;;;;;29.37;20.00;;;1.60;99.90;;;;;;5121446;28;20598;-73
2024/01/13 06:38:21;;;;;;;30.90;22.30;;;1.60;99.90;;;;;;5120901;28;20485;-73
2024/01/13 06:40:49;;;;;;;30.43;21.80;;;1.60;99.90;;;;;;5121111;28;20496;-73
2024/01/13 06:43:17;;;;;;;29.73;22.07;;;1.60;99.90;;;;;;5121158;28;20452;-73
2024/01/13 06:45:44;;;;;;;32.47;22.23;;;1.60;99.90;;;;;;5120633;28;20499;-73
2024/01/13 06:48:12;;;;;;;31.37;21.13;;;1.60;99.90;;;;;;5121040;28;20483;-73
2024/01/13 06:50:39;;;;;;;29.20;22.23;;;1.60;99.90;;;;;;5121322;28;20867;-72
2024/01/13 06:53:06;;;;;;;32.60;23.10;;;1.60;99.90;;;;;;5120929;28;20488;-76
2024/01/13 06:55:34;;;;;;;35.13;24.80;;;1.60;99.90;;;;;;5119883;28;20488;-75
2024/01/13 06:58:03;;;;;;;31.57;24.23;;;1.60;99.90;;;;;;5119743;28;20477;-73
2024/01/13 07:00:30;;;;;;;36.03;22.90;;;1.60;99.90;;;;;;5119956;28;20861;-72
2024/01/13 07:02:57;;;;;;;30.97;21.40;;;1.60;99.90;;;;;;5120325;28;20816;-73
2024/01/13 07:05:25;;;;;;;31.37;21.73;;;1.60;99.90;;;;;;5119433;28;20491;-73
2024/01/13 07:07:52;;;;;;;31.10;21.43;;;1.60;99.90;;;;;;5119692;28;20510;-72
2024/01/13 07:10:19;;;;;;;30.70;20.97;;;1.70;99.90;;;;;;5120449;28;20570;-73
2024/01/13 07:12:48;;;;;;;29.00;20.03;;;1.70;99.90;;;;;;5120265;28;20491;-73
2024/01/13 07:15:17;;;;;;;31.33;21.87;;;1.70;99.90;;;;;;5119953;28;20466;-73
2024/01/13 07:17:44;;;;;;;31.77;21.50;;;1.70;99.90;;;;;;5120229;28;20501;-73
2024/01/13 07:20:12;;;;;;;28.83;20.93;;;1.70;99.90;;;;;;5120490;28;20480;-73
2024/01/13 07:22:40;;;;;;;28.63;21.50;;;1.70;99.90;;;;;;5119949;28;20887;-74
2024/01/13 07:25:08;;;;;;;27.53;20.53;;;1.70;99.90;;;;;;5120474;28;20479;-73
2024/01/13 07:27:35;;;;;;;27.50;19.93;;;1.80;99.90;;;;;;5120035;28;20465;-74
2024/01/13 07:30:04;;;;;;;27.47;19.90;;;1.80;99.90;;;;;;5119103;28;20451;-73
2024/01/13 07:32:33;;;;;;;29.10;19.80;;;1.80;99.90;;;;;;5117345;28;20880;-74
2024/01/13 07:35:01;;;;;;;25.17;18.70;;;1.80;99.90;;;;;;5118815;28;20462;-74
2024/01/13 07:37:28;;;;;;;23.00;18.53;;;1.80;99.90;;;;;;5118178;28;20563;-74
2024/01/13 07:39:56;;;;;;;29.53;19.40;;;1.80;99.90;;;;;;5120199;28;20543;-74
2024/01/13 07:42:23;;;;;;;24.03;18.53;;;1.90;99.90;;;;;;5119895;28;20840;-74
2024/01/13 07:44:51;;;;;;;24.90;16.77;;;1.90;99.90;;;;;;5119430;28;20463;-73
2024/01/13 07:47:18;;;;;;;24.13;17.17;;;1.90;99.90;;;;;;5119998;28;20831;-73
2024/01/13 07:49:47;;;;;;;20.37;16.13;;;1.90;99.90;;;;;;5119042;28;20455;-73
2024/01/13 07:52:14;;;;;;;21.40;17.80;;;1.90;99.90;;;;;;5118071;28;20498;-73
2024/01/13 07:54:42;;;;;;;26.30;17.00;;;2.00;99.90;;;;;;5118698;28;20567;-73
2024/01/13 07:57:09;;;;;;;24.60;17.57;;;2.00;99.90;;;;;;5118364;28;20502;-73
2024/01/13 07:59:36;;;;;;;21.07;16.23;;;1.90;99.90;;;;;;5119681;28;20752;-76
2024/01/13 08:02:04;;;;;;;20.20;17.00;;;2.00;99.90;;;;;;5120341;28;20470;-74
2024/01/13 08:04:31;;;;;;;19.57;15.83;;;1.90;99.90;;;;;;5119586;28;20532;-73
2024/01/13 08:07:01;;;;;;;21.80;16.13;;;1.90;99.90;;;;;;5119249;28;20451;-71
2024/01/13 08:09:28;;;;;;;23.27;17.20;;;1.90;99.90;;;;;;5120284;28;20516;-73
2024/01/13 08:11:55;;;;;;;28.93;18.53;;;2.00;99.90;;;;;;5128159;28;20768;-74
2024/01/13 08:14:23;;;;;;;25.47;17.20;;;2.10;99.90;;;;;;5128237;28;20459;-75
2024/01/13 08:16:50;;;;;;;25.70;17.70;;;2.20;99.90;;;;;;5118507;28;20531;-66
2024/01/13 08:19:17;;;;;;;24.07;17.87;;;2.10;99.90;;;;;;5118956;28;20504;-66
2024/01/13 08:21:44;;;;;;;22.70;17.43;;;2.00;99.90;;;;;;5119090;28;20463;-66
2024/01/13 08:24:13;;;;;;;20.83;15.87;;;1.90;99.90;;;;;;5118378;28;20520;-66
2024/01/13 08:26:41;;;;;;;23.83;15.27;;;2.00;99.90;;;;;;5119119;28;20448;-66
2024/01/13 08:29:08;;;;;;;23.60;15.90;;;2.00;99.90;;;;;;5118991;28;20515;-65
2024/01/13 08:31:35;;;;;;;22.90;15.97;;;2.00;99.90;;;;;;5118694;28;20460;-66
2024/01/13 08:34:03;;;;;;;22.77;15.80;;;1.90;99.90;;;;;;5117379;28;20459;-66
2024/01/13 08:36:30;;;;;;;23.00;17.60;;;2.00;99.90;;;;;;5118444;28;20495;-66
2024/01/13 08:38:57;;;;;;;26.63;17.37;;;1.90;99.90;;;;;;5118610;28;20907;-66
2024/01/13 08:41:26;;;;;;;25.70;17.73;;;1.90;99.90;;;;;;5118732;27;20455;-67
2024/01/13 08:43:54;;;;;;;22.10;15.80;;;2.00;99.90;;;;;;5118774;28;20897;-68
2024/01/13 08:46:21;;;;;;;23.77;17.30;;;2.00;99.90;;;;;;5118359;28;20554;-66
2024/01/13 08:48:49;;;;;;;24.70;17.33;;;1.90;99.90;;;;;;5110032;28;20493;-67
2024/01/13 08:51:17;;;;;;;30.80;20.60;;;2.00;99.90;;;;;;5106291;28;20471;-67
2024/01/13 08:53:45;;;;;;;23.50;18.87;;;2.00;99.90;;;;;;5117065;28;20524;-67
2024/01/13 08:56:14;;;;;;;32.30;21.10;;;2.00;99.90;;;;;;5116635;28;20514;-68
2024/01/13 08:58:43;;;;;;;30.23;21.70;;;2.10;99.90;;;;;;5118465;28;20442;-67
2024/01/13 09:01:10;;;;;;;34.87;23.47;;;2.00;99.90;;;;;;5118277;28;20456;-66
2024/01/13 09:03:40;;;;;;;32.63;23.63;;;2.00;99.90;;;;;;5117624;28;20470;-67
2024/01/13 09:06:09;;;;;;;28.50;21.67;;;2.10;99.90;;;;;;5117649;28;20482;-67
2024/01/13 09:08:36;;;;;;;35.63;24.07;;;2.10;99.90;;;;;;5116173;28;20503;-68
2024/01/13 09:11:04;;;;;;;33.40;24.53;;;2.00;99.90;;;;;;5116492;28;20448;-67
2024/01/13 09:13:31;;;;;;;30.23;21.97;;;2.10;99.90;;;;;;5116712;28;20542;-67
2024/01/13 09:16:00;;;;;;;36.27;24.93;;;2.00;99.90;;;;;;5116412;28;20503;-67
2024/01/13 09:18:28;;;;;;;33.37;24.50;;;2.10;99.90;;;;;;5116404;28;20477;-67
2024/01/13 09:20:55;;;;;;;34.33;23.20;;;2.00;99.90;;;;;;5116032;28;20740;-67
2024/01/13 09:23:23;;;;;;;28.60;23.30;;;2.00;99.90;;;;;;5117919;28;20497;-67
2024/01/13 09:25:50;;;;;;;30.63;23.40;;;1.90;99.90;;;;;;5118523;28;20467;-67
2024/01/13 09:28:17;;;;;;;33.20;25.07;;;1.90;99.90;;;;;;5117844;28;20452;-67
2024/01/13 09:30:45;;;;;;;36.20;24.97;;;2.00;99.90;;;;;;5118151;28;20868;-68
2024/01/13 09:33:15;;;;;;;31.00;24.83;;;2.00;99.90;;;;;;5118078;28;20459;-67
2024/01/13 09:35:42;;;;;;;29.50;22.97;;;1.90;99.90;;;;;;5118215;28;20566;-67
2024/01/13 09:38:10;;;;;;;31.87;22.97;;;2.00;99.90;;;;;;5117670;28;20495;-70
2024/01/13 09:40:41;;;;;;;37.83;25.73;;;1.90;99.90;;;;;;5118124;28;20530;-67
2024/01/13 09:43:17;;;;;;;36.10;26.10;;;1.90;99.90;;;;;;5120745;28;20464;-68
2024/01/13 09:45:48;;;;;;;31.10;23.70;;;2.00;99.90;;;;;;5125991;28;20459;-68
2024/01/13 09:48:20;;;;;;;33.47;24.20;;;2.10;99.90;;;;;;5131222;28;20466;-69
2024/01/13 09:50:51;;;;;;;32.87;23.20;;;2.10;99.90;;;;;;5131497;28;20464;-69
2024/01/13 09:53:28;;;;;;;34.03;23.90;;;2.20;99.90;;;;;;5132829;28;20474;-69
2024/01/13 09:56:01;;;;;;;32.03;24.27;;;2.10;99.90;;;;;;5128618;27;20463;-71
2024/01/13 09:58:29;;;;;;;33.23;23.93;;;2.10;99.90;;;;;;5124818;28;20923;-70
2024/01/13 10:00:59;;;;;;;34.50;24.60;;;2.00;99.90;;;;;;5124525;28;20434;-70
2024/01/13 10:03:28;;;;;;;36.73;25.43;;;2.10;99.90;;;;;;5123311;28;20502;-69
2024/01/13 10:05:56;;;;;;;34.03;25.00;;;2.10;99.90;;;;;;5124551;28;20466;-70
2024/01/13 10:08:32;;;;;;;34.37;24.93;;;2.10;99.90;;;;;;5123324;28;20569;-71
2024/01/13 10:11:01;;;;;;;32.60;23.40;;;2.10;99.90;;;;;;5126566;28;20437;-71
2024/01/13 10:13:28;;;;;;;36.50;25.90;;;2.00;99.90;;;;;;5126284;28;20780;-71
2024/01/13 10:15:56;;;;;;;36.13;24.50;;;2.10;99.90;;;;;;5126578;28;20475;-70
2024/01/13 10:18:25;;;;;;;32.93;25.07;;;2.10;99.90;;;;;;5126456;28;20495;-71
2024/01/13 10:20:54;;;;;;;31.87;23.37;;;2.20;99.90;;;;;;5124246;28;20451;-70
2024/01/13 10:23:22;;;;;;;29.10;23.17;;;2.10;99.90;;;;;;5123272;27;20795;-71
2024/01/13 10:25:50;;;;;;;34.03;23.07;;;2.10;99.90;;;;;;5122355;28;20562;-71
2024/01/13 10:28:18;;;;;;;29.60;22.40;;;2.00;99.90;;;;;;5123773;28;20456;-73
2024/01/13 10:30:50;;;;;;;30.53;24.23;;;2.00;99.90;;;;;;5124385;28;20559;-71
2024/01/13 10:33:23;;;;;;;34.00;24.43;;;2.10;99.90;;;;;;5124464;28;20455;-70
2024/01/13 10:35:50;;;;;;;32.03;22.23;;;2.20;99.90;;;;;;5124095;28;20455;-71
2024/01/13 10:38:19;;;;;;;31.20;22.30;;;2.30;99.90;;;;;;5123259;28;20560;-75
2024/01/13 10:40:47;;;;;;;28.10;21.00;;;2.30;99.90;;;;;;5121780;28;20456;-70
2024/01/13 10:43:15;;;;;;;27.70;20.83;;;2.20;99.90;;;;;;5121872;28;20512;-72
2024/01/13 10:45:51;;;;;;;30.80;20.47;;;2.20;99.90;;;;;;5121540;28;20757;-66
2024/01/13 10:48:27;;;;;;;28.97;21.13;;;2.30;99.90;;;;;;5120536;28;20433;-69
2024/01/13 10:50:56;;;;;;;27.47;21.40;;;2.20;99.90;;;;;;5120602;28;20959;-69
2024/01/13 10:53:27;;;;;;;29.80;20.30;;;2.20;99.90;;;;;;5121008;28;20535;-68
2024/01/13 10:55:55;;;;;;;25.30;19.83;;;2.10;99.90;;;;;;5120918;28;20437;-67
2024/01/13 10:58:25;;;;;;;26.83;20.50;;;2.20;99.90;;;;;;5120108;28;20552;-67
2024/01/13 11:00:52;;;;;;;28.67;21.37;;;2.10;99.90;;;;;;5120521;28;20504;-69
2024/01/13 11:03:21;;;;;;;24.00;18.57;;;2.10;99.90;;;;;;5120707;28;20450;-68
2024/01/13 11:05:49;;;;;;;28.73;19.63;;;2.00;99.90;;;;;;5121162;28;20562;-67
2024/01/13 11:08:17;;;;;;;28.07;20.33;;;2.00;99.90;;;;;;5120237;28;20582;-68
2024/01/13 11:10:50;;;;;;;28.13;21.60;;;2.00;99.90;;;;;;5120424;28;20466;-67
2024/01/13 11:13:22;;;;;;;23.57;19.20;;;2.10;99.90;;;;;;5120330;28;20463;-67
2024/01/13 11:15:56;;;;;;;28.57;19.00;;;2.10;99.90;;;;;;5120624;27;20464;-69
2024/01/13 11:18:23;;;;;;;28.90;19.97;;;2.00;99.90;;;;;;5120504;28;20483;-67
2024/01/13 11:21:00;;;;;;;23.10;18.57;;;2.10;99.90;;;;;;5120557;28;20463;-66
2024/01/13 11:23:28;;;;;;;25.27;19.37;;;2.10;99.90;;;;;;5120613;28;20451;-66
2024/01/13 11:25:57;;;;;;;28.43;19.43;;;2.10;99.90;;;;;;5120119;28;20470;-66
2024/01/13 11:28:42;;;;;;;23.17;16.67;;;2.00;99.90;;;;;;5120148;28;20508;-66
2024/01/13 11:31:27;;;;;;;25.30;18.93;;;2.10;99.90;;;;;;5120409;28;20562;-66
2024/01/13 11:33:56;;;;;;;26.10;19.50;;;2.10;99.90;;;;;;5119870;28;20463;-65
2024/01/13 11:36:23;;;;;;;22.77;16.90;;;2.10;99.90;;;;;;5119494;28;20463;-65
2024/01/13 11:38:52;;;;;;;22.57;16.57;;;2.10;99.90;;;;;;5119858;28;20545;-65
2024/01/13 11:41:21;;;;;;;24.37;17.00;;;2.10;99.90;;;;;;5119660;28;20820;-66
2024/01/13 11:43:50;;;;;;;20.30;16.60;;;2.10;99.90;;;;;;5119728;28;20441;-64
2024/01/13 11:46:17;;;;;;;21.43;16.97;;;2.20;99.90;;;;;;5119769;28;20452;-65
2024/01/13 11:48:46;;;;;;;20.50;16.80;;;2.20;99.90;;;;;;5119206;28;20491;-65
2024/01/13 11:51:18;;;;;;;19.33;15.60;;;2.10;99.90;;;;;;5119499;28;20455;-66
2024/01/13 11:53:46;;;;;;;21.57;17.40;;;2.10;99.90;;;;;;5119135;28;20452;-65
2024/01/13 11:56:14;;;;;;;19.37;14.67;;;2.10;99.90;;;;;;5119157;28;20499;-66
2024/01/13 11:58:44;;;;;;;21.37;16.30;;;2.10;99.90;;;;;;5118926;28;20781;-66
2024/01/13 12:01:12;;;;;;;17.17;14.33;;;2.10;99.90;;;;;;5118627;28;20527;-67
2024/01/13 12:03:42;;;;;;;20.40;16.03;;;2.10;99.90;;;;;;5119045;28;20938;-67
2024/01/13 12:06:10;;;;;;;19.47;14.73;;;2.10;99.90;;;;;;5118693;28;20524;-67
2024/01/13 12:08:38;;;;;;;19.80;14.97;;;2.10;99.90;;;;;;5117418;28;20486;-67
2024/01/13 12:11:07;;;;;;;18.60;15.23;;;2.10;99.90;;;;;;5118907;28;20467;-67
2024/01/13 12:13:35;;;;;;;24.83;16.40;;;2.10;99.90;;;;;;5118686;28;20471;-67
2024/01/13 12:16:07;;;;;;;19.77;15.70;;;2.10;99.90;;;;;;5118300;28;20443;-67
2024/01/13 12:18:35;;;;;;;19.17;15.40;;;2.10;99.90;;;;;;5118504;28;20586;-68
2024/01/13 12:21:05;;;;;;;19.17;15.80;;;2.10;99.90;;;;;;5118624;28;20456;-67
2024/01/13 12:23:32;;;;;;;21.50;16.60;;;2.00;99.90;;;;;;5118699;28;20447;-67
2024/01/13 12:26:00;;;;;;;23.70;16.60;;;2.00;99.90;;;;;;5118078;28;20491;-67
2024/01/13 12:28:28;;;;;;;24.17;17.40;;;2.00;99.90;;;;;;5117269;28;20463;-67
2024/01/13 12:30:55;;;;;;;22.80;18.10;;;2.10;99.90;;;;;;5116284;28;20531;-68
2024/01/13 12:33:24;;;;;;;23.60;17.57;;;2.10;99.90;;;;;;5116073;28;20438;-68
2024/01/13 12:35:59;;;;;;;23.87;17.63;;;2.00;99.90;;;;;;5116255;28;20456;-68
2024/01/13 12:38:28;;;;;;;25.87;18.20;;;2.00;99.90;;;;;;5115418;28;20494;-67
2024/01/13 12:40:57;;;;;;;22.60;17.87;;;2.10;99.90;;;;;;5116117;28;20915;-68